createdAt,value
2018-04-24T00:02:12.696Z,76.94
2018-04-24T00:04:47.494Z,75.88
2018-04-24T00:07:22.489Z,75.86
2018-04-24T00:09:57.312Z,75.43
2018-04-24T00:12:32.201Z,75.19
2018-04-24T00:15:06.967Z,75.30
2018-04-24T00:17:41.785Z,75.03
2018-04-24T00:20:16.602Z,74.43
2018-04-24T00:22:51.590Z,74.38
2018-04-24T00:25:26.576Z,74.77
2018-04-24T00:28:01.245Z,75.43
2018-04-24T00:30:36.217Z,76.40
2018-04-24T00:33:11.108Z,76.99
2018-04-24T00:35:46.006Z,77.32
2018-04-24T00:38:20.996Z,78.12
2018-04-24T00:40:55.694Z,78.06
2018-04-24T00:43:30.393Z,77.44
2018-04-24T00:46:04.873Z,76.93
2018-04-24T00:48:39.823Z,76.26
2018-04-24T00:51:14.649Z,76.02
2018-04-24T00:53:49.477Z,75.69
2018-04-24T00:56:24.265Z,75.06
2018-04-24T00:58:59.067Z,75.06
2018-04-24T01:01:33.967Z,75.57
2018-04-24T01:04:08.630Z,75.93
2018-04-24T01:06:43.320Z,75.96
2018-04-24T01:09:18.125Z,76.09
2018-04-24T01:11:52.800Z,75.75
2018-04-24T01:14:27.180Z,74.85
2018-04-24T01:17:02.100Z,74.46
2018-04-24T01:19:36.890Z,74.45
2018-04-24T01:22:11.678Z,74.71
2018-04-24T01:24:46.345Z,74.87
2018-04-24T01:27:21.229Z,75.23
2018-04-24T01:29:56.100Z,75.10
2018-04-24T01:32:30.986Z,75.03
2018-04-24T01:35:05.533Z,75.16
2018-04-24T01:37:40.529Z,75.23
2018-04-24T01:40:15.215Z,75.44
2018-04-24T01:42:50.373Z,75.67
2018-04-24T01:45:25.099Z,75.70
2018-04-24T01:47:59.968Z,75.74
2018-04-24T01:50:34.461Z,75.95
2018-04-24T01:53:09.254Z,75.86
2018-04-24T01:55:44.037Z,76.54
2018-04-24T01:58:18.757Z,76.78
2018-04-24T02:00:53.476Z,76.83
2018-04-24T02:03:28.209Z,77.02
2018-04-24T02:06:02.821Z,76.72
2018-04-24T02:08:37.265Z,77.46
2018-04-24T02:11:12.289Z,76.72
2018-04-24T02:13:47.061Z,77.00
2018-04-24T02:16:21.946Z,77.42
2018-04-24T02:18:56.684Z,77.33
2018-04-24T02:21:31.681Z,77.04
2018-04-24T02:24:06.376Z,76.84
2018-04-24T02:26:41.102Z,76.73
2018-04-24T02:29:15.995Z,76.33
2018-04-24T02:31:50.711Z,76.07
2018-04-24T02:34:25.808Z,76.36
2018-04-24T02:37:00.826Z,76.47
2018-04-24T02:39:35.616Z,76.71
2018-04-24T02:42:10.315Z,77.03
2018-04-24T02:44:45.417Z,77.41
2018-04-24T02:47:20.521Z,77.75
2018-04-24T02:49:55.310Z,78.31
2018-04-24T02:52:30.206Z,78.02
2018-04-24T02:55:04.860Z,77.74
2018-04-24T02:57:39.765Z,77.87
2018-04-24T03:00:14.649Z,78.44
2018-04-24T03:02:49.700Z,78.79
2018-04-24T03:05:24.590Z,78.57
2018-04-24T03:07:59.531Z,78.59
2018-04-24T03:10:34.332Z,78.93
2018-04-24T03:13:09.147Z,78.80
2018-04-24T03:15:43.968Z,78.65
2018-04-24T03:18:18.766Z,78.43
2018-04-24T03:20:53.573Z,78.08
2018-04-24T03:23:28.378Z,78.15
2018-04-24T03:26:02.989Z,77.95
2018-04-24T03:28:37.711Z,77.69
2018-04-24T03:31:12.422Z,77.85
2018-04-24T03:33:47.139Z,77.51
2018-04-24T03:36:21.417Z,77.79
2018-04-24T03:38:56.516Z,77.84
2018-04-24T03:41:31.100Z,78.12
2018-04-24T03:44:05.691Z,78.41
2018-04-24T03:46:40.474Z,78.56
2018-04-24T03:49:15.062Z,78.58
2018-04-24T03:51:49.780Z,78.95
2018-04-24T03:54:24.551Z,79.20
2018-04-24T03:56:59.356Z,79.20
2018-04-24T03:59:34.074Z,78.87
2018-04-24T04:02:08.844Z,78.74
2018-04-24T04:04:43.845Z,78.77
2018-04-24T04:07:18.533Z,78.79
2018-04-24T04:09:53.129Z,78.97
2018-04-24T04:12:28.015Z,78.98
2018-04-24T04:15:02.724Z,79.18
2018-04-24T04:17:48.391Z,79.37
2018-04-24T04:20:35.038Z,79.58
2018-04-24T04:23:20.535Z,79.67
2018-04-24T04:25:55.157Z,79.79
2018-04-24T04:28:29.953Z,80.17
2018-04-24T04:31:04.661Z,80.35
2018-04-24T04:33:39.685Z,80.50
2018-04-24T04:36:14.513Z,81.02
2018-04-24T04:38:49.412Z,81.24
2018-04-24T04:41:24.285Z,81.16
2018-04-24T04:43:59.090Z,81.18
2018-04-24T04:46:33.794Z,81.21
2018-04-24T04:49:08.616Z,81.33
2018-04-24T04:51:44.307Z,81.22
2018-04-24T04:54:19.149Z,81.04
2018-04-24T04:56:53.627Z,81.13
2018-04-24T04:59:28.334Z,81.00
2018-04-24T05:02:02.833Z,81.00
2018-04-24T05:04:37.696Z,81.07
2018-04-24T05:07:12.409Z,81.34
2018-04-24T05:09:47.235Z,81.68
2018-04-24T05:12:22.112Z,81.46
2018-04-24T05:14:56.733Z,81.28
2018-04-24T05:17:31.351Z,81.12
2018-04-24T05:20:06.105Z,80.80
2018-04-24T05:22:40.763Z,80.87
2018-04-24T05:25:15.443Z,80.75
2018-04-24T05:27:50.448Z,80.87
2018-04-24T05:30:25.076Z,80.72
2018-04-24T05:32:59.765Z,80.71
2018-04-24T05:35:34.567Z,80.58
2018-04-24T05:38:09.222Z,80.42
2018-04-24T05:40:44.015Z,80.52
2018-04-24T05:43:18.797Z,80.73
2018-04-24T05:45:53.667Z,80.64
2018-04-24T05:48:28.419Z,80.99
2018-04-24T05:51:03.321Z,81.02
2018-04-24T05:53:38.335Z,80.67
2018-04-24T05:56:13.069Z,80.90
2018-04-24T05:58:47.795Z,80.68
2018-04-24T06:01:23.316Z,80.90
2018-04-24T06:03:58.125Z,80.88
2018-04-24T06:06:32.822Z,80.62
2018-04-24T06:09:07.519Z,80.75
2018-04-24T06:11:42.199Z,80.85
2018-04-24T06:14:16.895Z,80.71
2018-04-24T06:16:51.807Z,80.47
2018-04-24T06:19:26.423Z,80.66
2018-04-24T06:22:01.140Z,80.50
2018-04-24T06:24:35.824Z,80.50
2018-04-24T06:27:10.503Z,80.66
2018-04-24T06:29:45.153Z,80.40
2018-04-24T06:32:19.941Z,80.28
2018-04-24T06:34:54.857Z,79.89
2018-04-24T06:37:29.652Z,80.30
2018-04-24T06:40:03.892Z,80.44
2018-04-24T06:42:38.889Z,80.09
2018-04-24T06:45:13.267Z,79.93
2018-04-24T06:47:48.249Z,80.17
2018-04-24T06:50:22.896Z,80.46
2018-04-24T06:52:57.692Z,80.67
2018-04-24T06:55:32.392Z,80.51
2018-04-24T06:58:07.029Z,80.26
2018-04-24T07:00:41.839Z,80.65
2018-04-24T07:03:16.622Z,81.00
2018-04-24T07:05:51.611Z,81.44
2018-04-24T07:08:26.310Z,81.74
2018-04-24T07:11:01.099Z,82.56
2018-04-24T07:13:36.016Z,83.15
2018-04-24T07:16:10.996Z,84.00
2018-04-24T07:18:45.826Z,84.40
2018-04-24T07:21:20.746Z,85.09
2018-04-24T07:23:55.343Z,85.17
2018-04-24T07:26:30.274Z,85.12
2018-04-24T09:31:56.167Z,84.62
2018-04-24T09:34:31.262Z,84.34
2018-04-24T09:37:05.786Z,84.43
2018-04-24T09:39:40.472Z,84.15
2018-04-24T09:42:15.169Z,84.68
2018-04-24T09:44:49.978Z,85.00
2018-04-24T09:47:24.665Z,84.83
2018-04-24T09:49:59.438Z,84.52
2018-04-24T09:52:34.049Z,84.20
2018-04-24T09:55:08.846Z,83.93
2018-04-24T09:57:43.644Z,84.25
2018-04-24T10:00:23.900Z,84.09
2018-04-24T10:02:58.501Z,83.99
2018-04-24T10:05:33.415Z,83.56
2018-04-24T10:08:08.305Z,83.76
2018-04-24T10:10:43.229Z,83.45
2018-04-24T10:13:18.258Z,83.38
2018-04-24T10:15:53.042Z,81.77
2018-04-24T10:18:27.749Z,81.82
2018-04-24T10:21:02.678Z,81.59
2018-04-24T10:23:52.620Z,81.05
2018-04-24T10:26:28.126Z,81.69
2018-04-24T10:29:03.077Z,81.51
2018-04-24T10:31:37.757Z,81.68
2018-04-24T10:34:12.653Z,81.71
2018-04-24T10:36:47.437Z,81.35
2018-04-24T10:39:22.305Z,81.86
2018-04-24T10:41:56.934Z,81.48
2018-04-24T10:44:31.720Z,81.67
2018-04-24T10:47:06.639Z,81.82
2018-04-24T10:49:42.211Z,81.41
2018-04-24T10:52:16.997Z,81.44
2018-04-24T10:54:51.897Z,81.41
2018-04-24T10:57:27.037Z,80.87
2018-04-24T11:00:01.530Z,80.57
2018-04-24T11:02:36.442Z,81.01
2018-04-24T11:05:11.423Z,81.49
2018-04-24T11:07:47.221Z,81.01
2018-04-24T11:10:22.154Z,80.67
2018-04-24T11:12:56.749Z,80.94
2018-04-24T11:15:31.428Z,80.96
2018-04-24T11:18:07.582Z,79.62
2018-04-24T11:20:42.393Z,78.42
2018-04-24T11:23:17.306Z,77.35
2018-04-24T11:25:52.125Z,77.04
2018-04-24T11:28:26.832Z,77.23
2018-04-24T11:31:01.697Z,77.16
2018-04-24T11:33:36.465Z,78.07
2018-04-24T11:36:11.317Z,78.03
2018-04-24T11:38:46.115Z,77.57
2018-04-24T11:41:21.274Z,75.76
2018-04-24T11:43:56.729Z,75.87
2018-04-24T11:46:31.585Z,75.95
2018-04-24T11:49:06.384Z,76.33
2018-04-24T11:51:41.197Z,76.34
2018-04-24T11:54:15.991Z,76.85
2018-04-24T11:56:50.901Z,76.38
2018-04-24T11:59:25.800Z,76.29
2018-04-24T12:02:00.813Z,77.03
2018-04-24T12:04:35.626Z,76.44
2018-04-24T12:07:10.189Z,76.25
2018-04-24T12:09:46.690Z,75.81
2018-04-24T12:12:21.800Z,76.59
2018-04-24T12:14:56.862Z,76.98
2018-04-24T12:17:31.761Z,76.25
2018-04-24T12:20:06.660Z,75.87
2018-04-24T12:22:41.449Z,75.53
2018-04-24T12:25:16.061Z,75.29
2018-04-24T12:27:50.763Z,75.71
2018-04-24T12:30:25.536Z,76.34
2018-04-24T12:33:00.270Z,76.92
2018-04-24T12:35:34.821Z,77.00
2018-04-24T12:38:09.759Z,76.59
2018-04-24T12:40:44.244Z,75.23
2018-04-24T12:43:18.951Z,74.44
2018-04-24T12:45:53.397Z,74.88
2018-04-24T12:48:28.403Z,74.41
2018-04-24T12:51:03.109Z,74.35
2018-04-24T12:53:37.903Z,72.86
2018-04-24T12:56:12.448Z,72.68
2018-04-24T12:58:47.141Z,72.64
2018-04-24T13:01:21.945Z,73.18
2018-04-24T13:03:56.297Z,72.98
2018-04-24T13:06:31.381Z,72.55
2018-04-24T13:09:06.305Z,73.23
2018-04-24T13:11:41.749Z,73.59
2018-04-24T13:14:16.448Z,74.36
2018-04-24T13:16:51.369Z,75.18
2018-04-24T13:19:26.265Z,75.57
2018-04-24T13:22:01.065Z,76.02
2018-04-24T13:24:35.776Z,76.67
2018-04-24T13:27:10.468Z,76.78
2018-04-24T13:29:45.155Z,76.81
2018-04-24T13:32:19.945Z,77.42
2018-04-24T13:34:54.768Z,77.63
2018-04-24T13:37:29.544Z,77.91
2018-04-24T13:40:03.934Z,78.15
2018-04-24T13:42:39.113Z,78.11
2018-04-24T13:45:13.587Z,77.99
2018-04-24T13:47:48.600Z,77.41
2018-04-24T13:50:23.593Z,77.69
2018-04-24T13:52:58.306Z,77.50
2018-04-24T13:55:33.136Z,77.74
2018-04-24T13:58:07.812Z,77.89
2018-04-24T14:00:42.684Z,78.00
2018-04-24T14:03:17.477Z,77.95
2018-04-24T14:05:52.268Z,77.89
2018-04-24T14:08:27.064Z,77.75
2018-04-24T14:11:01.780Z,77.51
2018-04-24T14:13:36.361Z,77.60
2018-04-24T14:16:11.212Z,77.72
2018-04-24T14:18:45.938Z,77.96
2018-04-24T14:21:20.820Z,78.26
2018-04-24T14:23:55.612Z,77.97
2018-04-24T14:26:30.526Z,77.79
2018-04-24T14:29:05.413Z,77.69
2018-04-24T14:31:40.365Z,77.50
2018-04-24T14:34:15.078Z,76.63
2018-04-24T14:36:49.778Z,76.41
2018-04-24T14:39:24.565Z,76.32
2018-04-24T14:41:59.456Z,76.01
2018-04-24T14:44:34.261Z,76.07
2018-04-24T14:47:08.956Z,75.89
2018-04-24T14:49:43.753Z,76.12
2018-04-24T14:52:18.505Z,75.93
2018-04-24T14:54:53.401Z,75.88
2018-04-24T14:57:28.396Z,76.00
2018-04-24T15:00:03.181Z,76.58
2018-04-24T15:02:38.090Z,77.28
2018-04-24T15:05:12.853Z,77.32
2018-04-24T15:07:47.654Z,76.96
2018-04-24T15:10:22.531Z,77.40
2018-04-24T15:12:57.232Z,77.08
2018-04-24T15:15:32.196Z,76.93
2018-04-24T15:18:06.784Z,77.31
2018-04-24T15:20:41.797Z,77.30
2018-04-24T15:23:23.962Z,77.16
2018-04-24T15:25:58.489Z,77.87
2018-04-24T15:28:33.194Z,77.35
2018-04-24T15:31:07.945Z,77.48
2018-04-24T15:33:42.626Z,77.97
2018-04-24T15:36:17.505Z,77.37
2018-04-24T15:41:48.806Z,78.45
2018-04-24T15:44:23.484Z,78.24
2018-04-24T15:46:58.236Z,78.03
2018-04-24T15:49:33.116Z,77.52
2018-04-24T15:52:07.933Z,77.27
2018-04-24T15:54:42.597Z,77.61
2018-04-24T15:57:17.433Z,77.97
2018-04-24T15:59:52.017Z,78.05
2018-04-24T16:02:26.820Z,77.87
2018-04-24T16:05:01.493Z,78.37
2018-04-24T16:07:36.326Z,78.24
2018-04-24T16:10:11.129Z,78.83
2018-04-24T16:12:45.951Z,78.89
2018-04-24T16:15:20.848Z,79.04
2018-04-24T16:17:55.536Z,78.31
2018-04-24T16:20:30.145Z,77.91
2018-04-24T16:23:05.112Z,77.79
2018-04-24T16:25:40.141Z,77.89
2018-04-24T16:28:14.939Z,77.81
2018-04-24T16:30:49.825Z,78.11
2018-04-24T16:33:24.522Z,77.59
2018-04-24T16:35:59.313Z,76.89
2018-04-24T16:38:33.905Z,77.21
2018-04-24T16:41:08.540Z,77.60
2018-04-24T16:43:43.316Z,77.21
2018-04-24T16:46:17.969Z,76.95
2018-04-24T16:48:52.874Z,76.72
2018-04-24T16:51:27.771Z,76.98
2018-04-24T16:54:02.755Z,77.09
2018-04-24T16:56:37.375Z,77.12
2018-04-24T16:59:12.186Z,77.13
2018-04-24T17:01:46.888Z,77.04
2018-04-24T17:04:21.571Z,76.55
2018-04-24T17:06:56.217Z,76.22
2018-04-24T17:09:30.933Z,76.08
2018-04-24T17:12:05.620Z,75.98
2018-04-24T17:14:40.414Z,76.30
2018-04-24T17:17:15.304Z,76.25
2018-04-24T17:19:50.229Z,76.43
2018-04-24T17:22:24.954Z,76.63
2018-04-24T17:24:59.637Z,76.66
2018-04-24T17:27:34.530Z,76.51
2018-04-24T17:30:09.425Z,76.61
2018-04-24T17:32:44.116Z,76.82
2018-04-24T17:35:19.000Z,76.73
2018-04-24T17:37:53.780Z,76.87
2018-04-24T17:40:28.557Z,76.37
2018-04-24T17:43:03.640Z,76.25
2018-04-24T17:45:37.821Z,76.20
2018-04-24T17:48:12.616Z,76.26
2018-04-24T17:50:47.024Z,76.28
2018-04-24T17:53:21.927Z,76.43
2018-04-24T17:55:56.654Z,76.45
2018-04-24T17:58:31.443Z,76.34
2018-04-24T18:01:06.133Z,76.28
2018-04-24T18:03:40.721Z,76.05
2018-04-24T18:06:15.612Z,76.39
2018-04-24T18:08:50.397Z,76.14
2018-04-24T18:11:25.122Z,76.18
2018-04-24T18:13:59.867Z,76.39
2018-04-24T18:16:34.894Z,76.93
2018-04-24T18:19:09.261Z,76.83
2018-04-24T18:21:44.345Z,76.69
2018-04-24T18:24:19.209Z,77.04
2018-04-24T18:26:53.828Z,76.78
2018-04-24T18:29:28.716Z,77.16
2018-04-24T18:32:03.318Z,76.85
2018-04-24T18:34:38.311Z,76.99
2018-04-24T18:37:13.247Z,77.29
2018-04-24T18:39:47.942Z,77.35
2018-04-24T18:42:22.744Z,77.14
2018-04-24T18:44:57.611Z,77.30
2018-04-24T18:47:32.416Z,76.75
2018-04-24T18:50:06.961Z,76.71
2018-04-24T18:52:41.665Z,76.65
2018-04-24T18:55:20.246Z,76.58
2018-04-24T18:57:55.251Z,76.42
2018-04-24T19:00:29.665Z,76.45
2018-04-24T19:03:04.595Z,76.31
2018-04-24T19:05:39.292Z,76.20
2018-04-24T19:08:14.181Z,76.25
2018-04-24T19:10:48.872Z,76.34
2018-04-24T19:13:23.568Z,76.55
2018-04-24T19:18:43.499Z,76.51
2018-04-24T19:21:18.688Z,76.60
2018-04-24T19:23:53.502Z,76.70
2018-04-24T19:26:27.906Z,76.73
2018-04-24T19:29:02.760Z,76.59
2018-04-24T19:31:42.610Z,76.76
2018-04-24T19:34:17.666Z,76.73
2018-04-24T19:36:52.567Z,76.71
2018-04-24T19:39:32.620Z,76.80
2018-04-24T19:42:06.699Z,77.00
2018-04-24T19:44:41.407Z,77.37
2018-04-24T19:47:16.109Z,77.26
2018-04-24T19:49:56.031Z,77.06
2018-04-24T19:52:31.448Z,77.18
2018-04-24T19:55:11.362Z,77.20
2018-04-24T19:57:46.641Z,77.16
2018-04-24T20:00:21.438Z,77.36
2018-04-24T20:02:56.262Z,77.31
2018-04-24T20:05:32.365Z,77.76
2018-04-24T20:08:07.565Z,77.88
2018-04-24T20:10:42.274Z,77.89
2018-04-24T20:13:17.070Z,78.00
2018-04-24T20:15:51.758Z,78.06
2018-04-24T20:18:26.571Z,78.13
2018-04-24T20:21:01.251Z,78.23
2018-04-24T20:23:36.016Z,78.54
2018-04-24T20:26:10.729Z,78.76
2018-04-24T20:28:45.338Z,78.89
2018-04-24T20:31:20.242Z,79.10
2018-04-24T20:33:54.820Z,79.08
2018-04-24T20:36:29.827Z,78.97
2018-04-24T20:39:03.709Z,78.98
2018-04-24T20:41:38.390Z,79.09
2018-04-24T20:44:13.393Z,78.90
2018-04-24T20:46:48.437Z,79.09
2018-04-24T20:49:23.243Z,79.22
2018-04-24T20:51:57.925Z,79.13
2018-04-24T20:54:32.783Z,79.03
2018-04-24T20:57:07.919Z,79.33
2018-04-24T20:59:42.702Z,79.65
2018-04-24T21:02:17.704Z,79.77
2018-04-24T21:04:52.710Z,79.58
2018-04-24T21:07:27.712Z,79.55
2018-04-24T21:10:02.414Z,79.31
2018-04-24T21:12:37.442Z,79.79
2018-04-24T21:15:12.395Z,80.06
2018-04-24T21:17:46.920Z,80.10
2018-04-24T21:20:21.500Z,79.90
2018-04-24T21:22:56.266Z,80.07
2018-04-24T21:25:31.457Z,80.17
2018-04-24T21:28:06.168Z,79.87
2018-04-24T21:30:40.891Z,80.12
2018-04-24T21:33:15.170Z,80.24
2018-04-24T21:35:50.093Z,80.27
2018-04-24T21:38:24.789Z,80.38
2018-04-24T21:40:59.870Z,80.57
2018-04-24T21:43:35.018Z,80.44
2018-04-24T21:46:09.697Z,80.75
2018-04-24T21:48:44.706Z,80.85
2018-04-24T21:51:19.399Z,81.19
2018-04-24T21:53:54.404Z,81.39
2018-04-24T21:56:29.402Z,81.69
2018-04-24T21:59:04.066Z,81.59
2018-04-24T22:01:39.382Z,81.87
2018-04-24T22:04:14.178Z,82.30
2018-04-24T22:06:49.284Z,82.43
2018-04-24T22:09:24.279Z,82.21
2018-04-24T22:11:59.061Z,82.22
2018-04-24T22:14:34.161Z,82.39
2018-04-24T22:17:09.051Z,82.73
2018-04-24T22:19:43.741Z,82.96
2018-04-24T22:22:18.735Z,83.09
2018-04-24T22:24:53.434Z,83.00
2018-04-24T22:27:28.130Z,82.80
2018-04-24T22:30:02.702Z,82.88
2018-04-24T22:32:37.230Z,82.58
2018-04-24T22:35:12.123Z,82.18
2018-04-24T22:37:46.958Z,82.38
2018-04-24T22:40:21.740Z,82.48
2018-04-24T22:42:56.490Z,82.49
2018-04-24T22:45:31.283Z,82.38
2018-04-24T22:48:17.673Z,82.57
2018-04-24T22:50:52.863Z,82.77
2018-04-24T22:53:27.757Z,83.30
2018-04-24T22:56:02.447Z,83.56
2018-04-24T22:58:37.246Z,83.76
2018-04-24T23:01:12.047Z,83.58
2018-04-24T23:03:47.128Z,83.77
2018-04-24T23:06:21.938Z,83.43
2018-04-24T23:08:56.832Z,82.85
2018-04-24T23:11:42.801Z,83.07
2018-04-24T23:14:28.376Z,83.18
2018-04-24T23:17:13.850Z,83.35
2018-04-24T23:19:59.637Z,83.87
2018-04-24T23:22:33.654Z,84.45
2018-04-24T23:25:08.959Z,84.70
2018-04-24T23:27:43.331Z,84.91
2018-04-24T23:30:18.327Z,84.92
2018-04-24T23:32:52.980Z,84.58
2018-04-24T23:35:27.993Z,84.99
2018-04-24T23:38:02.862Z,85.54
2018-04-24T23:40:37.524Z,85.41
2018-04-24T23:43:12.296Z,85.67
2018-04-24T23:45:47.274Z,85.92
2018-04-24T23:48:21.546Z,86.06
2018-04-24T23:50:56.457Z,86.15
2018-04-24T23:53:31.146Z,86.52
2018-04-24T23:56:05.695Z,86.39
2018-04-24T23:58:40.605Z,86.54
